Time;durP1;ratioP1;P1;durP2;ratioP2;P2;SDS_P1;SDS_P2;PMS_P1;PMS_P2;Temp;Humidity;BMP_temperature;BMP_pressure;BME280_temperature;BME280_humidity;BME280_pressure;Samples;Min_cycle;Max_cycle;Signal;HPM_P1;HPM_P2
2022/08/14 00:01:17;;;;;;;7.90;4.57;;;24.20;95.40;;;;;;5004923;28;20468;-69
2022/08/14 00:03:44;;;;;;;6.40;4.80;;;24.20;95.60;;;;;;5015667;28;20510;-69
2022/08/14 00:06:11;;;;;;;5.80;5.17;;;24.10;96.00;;;;;;5009153;28;20472;-69
2022/08/14 00:08:39;;;;;;;6.57;5.30;;;23.90;96.70;;;;;;5002050;28;20470;-70
2022/08/14 00:11:06;;;;;;;5.60;4.90;;;23.90;97.30;;;;;;5003340;28;20494;-69
2022/08/14 00:13:34;;;;;;;5.50;4.40;;;23.90;97.70;;;;;;5010382;28;20980;-69
2022/08/14 00:16:01;;;;;;;5.97;4.70;;;23.90;98.10;;;;;;5011544;28;20459;-69
2022/08/14 00:18:28;;;;;;;5.67;5.17;;;23.90;98.40;;;;;;5010900;28;20556;-69
2022/08/14 00:20:57;;;;;;;5.83;5.03;;;23.70;99.40;;;;;;5013745;28;20467;-69
2022/08/14 00:23:24;;;;;;;7.83;4.67;;;23.50;99.90;;;;;;5009820;28;22476;-69
2022/08/14 00:25:56;;;;;;;5.10;4.60;;;23.10;99.90;;;;;;5009779;28;20782;-68
2022/08/14 00:28:26;;;;;;;5.13;4.63;;;22.90;99.90;;;;;;5002787;28;20454;-68
2022/08/14 00:30:58;;;;;;;5.47;4.87;;;22.60;99.90;;;;;;5004373;28;20593;-69
2022/08/14 00:33:27;;;;;;;6.47;5.87;;;22.80;99.90;;;;;;5008823;28;20537;-69
2022/08/14 00:35:55;;;;;;;5.03;4.53;;;23.10;99.90;;;;;;5002884;28;20475;-70
2022/08/14 00:38:22;;;;;;;6.40;5.10;;;23.20;99.90;;;;;;5002444;28;20471;-68
2022/08/14 00:40:49;;;;;;;5.17;4.60;;;23.30;99.90;;;;;;5010591;28;20450;-68
2022/08/14 00:43:17;;;;;;;5.93;5.30;;;23.30;99.90;;;;;;5009221;28;20866;-68
2022/08/14 00:45:45;;;;;;;6.17;5.10;;;23.30;99.90;;;;;;5005031;28;20470;-69
2022/08/14 00:48:12;;;;;;;4.67;4.27;;;23.20;99.90;;;;;;5010882;28;20557;-70
2022/08/14 00:50:39;;;;;;;7.37;5.03;;;23.10;99.90;;;;;;5002604;28;20482;-70
2022/08/14 00:53:08;;;;;;;5.43;4.90;;;22.90;99.90;;;;;;5015199;28;20483;-70
2022/08/14 00:55:40;;;;;;;5.27;4.73;;;22.90;99.90;;;;;;5009530;28;20470;-68
2022/08/14 01:00:53;;;;;;;14.70;5.73;;;23.10;99.90;;;;;;5007223;28;20449;-68
2022/08/14 01:03:21;;;;;;;6.23;5.33;;;23.00;99.90;;;;;;5011652;28;21038;-68
2022/08/14 01:05:50;;;;;;;6.30;5.40;;;22.90;99.90;;;;;;5006142;28;20462;-69
2022/08/14 01:08:20;;;;;;;6.23;4.63;;;22.90;99.90;;;;;;5009999;28;20473;-68
2022/08/14 01:10:51;;;;;;;7.27;6.10;;;22.60;99.90;;;;;;5003783;28;20484;-68
2022/08/14 01:13:20;;;;;;;5.53;5.03;;;22.10;99.90;;;;;;5006831;28;20486;-68
2022/08/14 01:15:50;;;;;;;6.83;5.90;;;22.10;99.90;;;;;;5009174;28;20495;-69
2022/08/14 01:21:05;;;;;;;6.80;5.27;;;22.50;99.90;;;;;;5012129;28;20450;-69
2022/08/14 01:23:37;;;;;;;5.13;4.70;;;22.30;99.90;;;;;;5012481;28;21042;-69
2022/08/14 01:26:04;;;;;;;5.73;5.03;;;22.40;99.90;;;;;;5018369;28;20958;-68
2022/08/14 01:28:36;;;;;;;6.97;6.27;;;22.50;99.90;;;;;;5002957;28;20464;-69
2022/08/14 01:31:07;;;;;;;5.47;4.93;;;22.60;99.90;;;;;;5012260;28;20897;-69
2022/08/14 01:33:39;;;;;;;6.83;5.80;;;22.30;99.90;;;;;;5011140;28;21017;-69
2022/08/14 01:36:08;;;;;;;5.10;4.60;;;22.40;99.90;;;;;;5016360;28;20458;-69
2022/08/14 01:38:37;;;;;;;5.63;5.13;;;22.40;99.90;;;;;;5016355;28;21085;-69
2022/08/14 01:41:07;;;;;;;6.07;5.40;;;22.50;99.90;;;;;;5009234;28;20502;-69
2022/08/14 01:43:43;;;;;;;8.20;5.83;;;22.50;99.90;;;;;;5012600;28;20534;-68
2022/08/14 01:46:11;;;;;;;9.37;6.50;;;22.60;99.90;;;;;;5010129;28;20466;-69
2022/08/14 01:48:43;;;;;;;15.10;5.77;;;22.60;99.90;;;;;;5004692;28;20461;-69
2022/08/14 01:51:10;;;;;;;6.60;5.63;;;22.60;99.90;;;;;;5004254;28;20511;-70
2022/08/14 01:53:40;;;;;;;6.43;5.93;;;22.50;99.90;;;;;;5015738;28;21181;-68
2022/08/14 01:56:07;;;;;;;6.53;5.50;;;22.40;99.90;;;;;;5012732;28;20467;-69
2022/08/14 01:58:35;;;;;;;6.10;5.43;;;22.30;99.90;;;;;;5007063;28;20466;-69
2022/08/14 02:01:03;;;;;;;8.77;5.33;;;22.30;99.90;;;;;;5010080;28;20437;-69
2022/08/14 02:03:33;;;;;;;5.43;4.93;;;22.40;99.90;;;;;;5012357;28;20474;-69
2022/08/14 02:06:03;;;;;;;8.97;5.97;;;22.40;99.90;;;;;;5010629;28;20556;-68
2022/08/14 02:08:30;;;;;;;7.30;5.30;;;22.40;99.90;;;;;;5017592;28;20458;-69
2022/08/14 02:11:17;;;;;;;6.10;5.23;;;22.00;99.90;;;;;;5007962;28;21177;-69
2022/08/14 02:13:45;;;;;;;6.57;4.60;;;21.80;99.90;;;;;;5014736;28;20474;-69
2022/08/14 02:16:18;;;;;;;8.57;5.17;;;21.80;99.90;;;;;;5011333;28;20458;-69
2022/08/14 02:18:45;;;;;;;7.27;6.03;;;21.90;99.90;;;;;;5011986;28;20469;-69
2022/08/14 02:21:13;;;;;;;7.80;5.00;;;21.90;99.90;;;;;;5011380;28;20771;-69
2022/08/14 02:23:41;;;;;;;7.37;5.47;;;21.70;99.90;;;;;;5012529;28;20482;-68
2022/08/14 02:26:19;;;;;;;6.63;5.73;;;21.50;99.90;;;;;;5015817;28;20468;-69
2022/08/14 02:28:48;;;;;;;9.20;6.40;;;21.60;99.90;;;;;;5008858;28;20467;-68
2022/08/14 02:31:15;;;;;;;6.33;5.33;;;21.70;99.90;;;;;;5007776;28;20487;-69
2022/08/14 02:33:43;;;;;;;5.97;5.37;;;21.80;99.90;;;;;;5011348;28;20474;-69
2022/08/14 02:36:11;;;;;;;7.50;6.17;;;22.00;99.90;;;;;;5012350;28;20973;-69
2022/08/14 02:38:39;;;;;;;5.53;4.97;;;21.90;99.90;;;;;;5009330;28;20490;-68
2022/08/14 02:41:09;;;;;;;11.20;5.60;;;21.90;99.90;;;;;;5011239;28;20998;-68
2022/08/14 02:43:38;;;;;;;6.87;6.17;;;21.90;99.90;;;;;;5012501;28;21214;-68
2022/08/14 02:46:08;;;;;;;8.70;6.40;;;21.90;99.90;;;;;;5005521;28;20554;-69
2022/08/14 02:48:38;;;;;;;7.50;5.73;;;21.90;99.90;;;;;;5010205;28;20458;-69
2022/08/14 02:51:06;;;;;;;11.23;6.23;;;21.90;99.90;;;;;;5011292;28;20482;-69
2022/08/14 02:53:34;;;;;;;7.83;6.57;;;22.00;99.90;;;;;;5010106;28;20484;-69
2022/08/14 02:56:03;;;;;;;9.37;6.90;;;21.80;99.90;;;;;;5012521;28;20466;-68
2022/08/14 02:58:30;;;;;;;7.87;6.63;;;21.30;99.90;;;;;;5012987;28;20458;-68
2022/08/14 03:00:58;;;;;;;6.30;5.70;;;21.00;99.90;;;;;;5011441;28;20477;-68
2022/08/14 03:03:26;;;;;;;8.50;6.13;;;20.70;99.90;;;;;;5005973;28;20799;-68
2022/08/14 03:05:53;;;;;;;10.43;6.93;;;20.60;99.90;;;;;;5007227;28;20540;-68
2022/08/14 03:08:21;;;;;;;6.13;5.60;;;20.70;99.90;;;;;;5007090;28;20548;-68
2022/08/14 03:10:48;;;;;;;6.67;5.90;;;20.60;99.90;;;;;;5010484;28;20521;-68
2022/08/14 03:13:15;;;;;;;7.40;5.40;;;20.60;99.90;;;;;;5013178;28;21020;-68
2022/08/14 03:15:45;;;;;;;7.87;7.00;;;20.60;99.90;;;;;;5014296;28;20450;-68
2022/08/14 03:18:14;;;;;;;8.87;6.80;;;20.90;99.90;;;;;;5007205;28;20454;-68
2022/08/14 03:20:41;;;;;;;6.47;5.30;;;21.10;99.90;;;;;;5009716;28;20458;-68
2022/08/14 03:23:08;;;;;;;9.30;6.30;;;20.90;99.90;;;;;;5012166;28;20849;-68
2022/08/14 03:25:36;;;;;;;7.20;6.50;;;20.70;99.90;;;;;;5009095;28;20473;-68
2022/08/14 03:28:05;;;;;;;6.60;5.50;;;20.70;99.90;;;;;;5009139;28;20721;-68
2022/08/14 03:30:33;;;;;;;7.73;6.67;;;20.80;99.90;;;;;;5007718;28;20846;-67
2022/08/14 03:33:00;;;;;;;11.53;9.07;;;21.10;99.90;;;;;;5008384;28;20473;-67
2022/08/14 03:35:29;;;;;;;7.77;6.40;;;21.30;99.90;;;;;;5010637;28;20461;-68
2022/08/14 03:38:03;;;;;;;7.23;6.03;;;21.40;99.90;;;;;;5011083;28;20941;-67
2022/08/14 03:40:30;;;;;;;7.97;6.37;;;21.40;99.90;;;;;;5011070;28;20463;-68
2022/08/14 03:42:57;;;;;;;7.27;6.57;;;21.40;99.90;;;;;;5009218;28;20489;-67
2022/08/14 03:45:24;;;;;;;8.10;6.70;;;21.30;99.90;;;;;;5008412;28;20471;-67
2022/08/14 03:47:51;;;;;;;8.80;7.20;;;21.20;99.90;;;;;;5008923;28;20549;-67
2022/08/14 03:50:18;;;;;;;10.90;6.50;;;21.20;99.90;;;;;;5011582;28;20465;-67
2022/08/14 03:52:47;;;;;;;7.27;6.57;;;21.10;99.90;;;;;;5002529;28;20492;-67
2022/08/14 03:55:14;;;;;;;8.10;6.77;;;21.10;99.90;;;;;;5006909;28;21157;-67
2022/08/14 03:57:42;;;;;;;8.53;6.30;;;21.20;99.90;;;;;;5010776;28;20468;-68
2022/08/14 04:00:12;;;;;;;12.70;7.67;;;21.20;99.90;;;;;;5009310;28;22341;-68
2022/08/14 04:02:40;;;;;;;8.20;7.00;;;21.10;99.90;;;;;;5013175;28;20557;-67
2022/08/14 04:05:09;;;;;;;9.23;6.50;;;21.10;99.90;;;;;;5007411;28;21386;-68
2022/08/14 04:07:37;;;;;;;10.20;6.27;;;21.20;99.90;;;;;;5013139;28;20457;-68
2022/08/14 04:10:07;;;;;;;8.23;7.40;;;21.20;99.90;;;;;;5006947;28;21056;-68
2022/08/14 04:12:35;;;;;;;12.40;7.40;;;21.30;99.90;;;;;;5011897;28;20484;-68
2022/08/14 04:15:02;;;;;;;6.47;5.73;;;21.20;99.90;;;;;;5011425;28;20484;-68
2022/08/14 04:17:29;;;;;;;8.30;7.50;;;21.10;99.90;;;;;;5009786;28;20464;-68
2022/08/14 04:19:56;;;;;;;8.03;7.07;;;21.00;99.90;;;;;;5004947;28;20470;-68
2022/08/14 04:22:23;;;;;;;18.00;16.63;;;20.90;99.90;;;;;;5007193;28;20477;-69
2022/08/14 04:24:52;;;;;;;15.13;8.17;;;20.90;99.90;;;;;;5010673;28;20465;-68
2022/08/14 04:27:22;;;;;;;7.70;6.90;;;20.80;99.90;;;;;;5002392;28;20468;-68
2022/08/14 04:29:48;;;;;;;11.43;7.73;;;20.50;99.90;;;;;;5007297;28;20944;-69
2022/08/14 04:32:15;;;;;;;7.17;6.30;;;20.80;99.90;;;;;;5013673;28;20518;-69
2022/08/14 04:34:42;;;;;;;7.87;7.07;;;20.70;99.90;;;;;;5011045;28;20466;-69
2022/08/14 04:45:39;;;;;;;6.73;5.90;;;20.60;99.90;;;;;;4953998;28;20795;-68
2022/08/14 04:48:16;;;;;;;10.90;8.10;;;20.70;99.90;;;;;;5000639;28;20462;-68
2022/08/14 04:50:45;;;;;;;8.40;6.50;;;20.70;99.90;;;;;;5008706;28;20899;-67
2022/08/14 04:53:15;;;;;;;7.20;6.20;;;20.80;99.90;;;;;;5010262;28;21096;-67
2022/08/14 04:55:43;;;;;;;8.73;7.77;;;20.70;99.90;;;;;;5013873;28;20582;-68
2022/08/14 04:58:11;;;;;;;7.77;6.60;;;20.70;99.90;;;;;;5012726;28;20464;-68
2022/08/14 05:00:39;;;;;;;7.87;6.50;;;20.80;99.90;;;;;;5007470;28;20462;-68
2022/08/14 05:03:06;;;;;;;7.83;6.70;;;20.70;99.90;;;;;;5025472;22;20504;-73
2022/08/14 05:05:33;;;;;;;9.60;7.10;;;20.80;99.90;;;;;;5015037;28;21204;-73
2022/08/14 05:08:07;;;;;;;8.30;7.47;;;20.90;99.90;;;;;;5016947;28;20456;-73
2022/08/14 05:10:35;;;;;;;9.03;7.30;;;20.90;99.90;;;;;;5017751;28;20864;-73
2022/08/14 05:13:04;;;;;;;7.97;6.63;;;21.00;99.90;;;;;;5012396;28;20481;-73
2022/08/14 05:15:35;;;;;;;7.80;7.00;;;21.20;99.90;;;;;;4999708;28;20466;-73
2022/08/14 05:18:02;;;;;;;10.17;7.90;;;21.40;99.90;;;;;;4996348;28;20940;-73
2022/08/14 05:20:29;;;;;;;8.37;7.53;;;21.60;99.90;;;;;;5003045;28;20457;-73
2022/08/14 05:22:58;;;;;;;7.60;6.33;;;22.00;99.90;;;;;;4993155;28;21009;-72
2022/08/14 05:25:25;;;;;;;8.47;6.83;;;21.90;99.90;;;;;;5001846;28;20470;-71
2022/08/14 05:27:52;;;;;;;8.20;6.83;;;21.80;99.90;;;;;;4996067;28;20459;-72
2022/08/14 05:30:19;;;;;;;9.80;7.63;;;21.90;99.90;;;;;;4987637;28;20462;-73
2022/08/14 05:32:47;;;;;;;9.10;7.53;;;22.30;99.90;;;;;;4999760;28;20492;-72
2022/08/14 05:35:14;;;;;;;8.97;7.27;;;22.60;99.90;;;;;;5003630;28;20556;-72
2022/08/14 05:37:41;;;;;;;7.70;6.70;;;22.90;99.90;;;;;;4996472;28;20454;-72
2022/08/14 05:40:09;;;;;;;10.23;7.50;;;23.30;99.90;;;;;;5001061;28;20475;-72
2022/08/14 05:42:36;;;;;;;9.40;7.40;;;23.90;99.90;;;;;;5002169;28;20452;-72
2022/08/14 05:45:05;;;;;;;10.30;7.90;;;23.50;99.90;;;;;;4998589;28;20477;-72
2022/08/14 05:47:38;;;;;;;9.40;7.70;;;23.40;99.90;;;;;;5004689;28;20467;-73
2022/08/14 05:50:08;;;;;;;7.60;6.90;;;23.70;99.90;;;;;;4999103;28;21057;-72
2022/08/14 05:52:35;;;;;;;8.57;6.90;;;24.50;99.90;;;;;;5002660;28;20487;-72
2022/08/14 05:55:02;;;;;;;8.73;7.93;;;24.80;99.90;;;;;;4997829;28;20847;-72
2022/08/14 05:57:32;;;;;;;9.30;7.40;;;24.90;99.90;;;;;;4996276;28;20463;-73
2022/08/14 05:59:59;;;;;;;9.87;8.60;;;25.40;99.90;;;;;;4988942;28;20462;-73
2022/08/14 06:02:25;;;;;;;12.93;9.17;;;25.90;99.90;;;;;;4989397;28;20487;-71
2022/08/14 06:04:52;;;;;;;8.97;7.90;;;26.30;99.90;;;;;;4984866;28;20468;-72
2022/08/14 06:07:20;;;;;;;7.83;7.03;;;26.70;99.90;;;;;;4993282;28;20457;-72
2022/08/14 06:09:47;;;;;;;7.87;6.90;;;26.60;99.90;;;;;;4998150;28;20461;-72
2022/08/14 06:12:14;;;;;;;10.80;9.70;;;26.80;99.90;;;;;;4999984;28;20473;-71
2022/08/14 06:14:42;;;;;;;9.57;8.47;;;26.70;99.90;;;;;;5000915;28;20499;-71
2022/08/14 06:17:09;;;;;;;8.43;7.07;;;26.70;99.90;;;;;;4998921;28;20461;-71
2022/08/14 06:19:35;;;;;;;8.23;6.40;;;26.60;99.90;;;;;;5002320;28;20832;-71
2022/08/14 06:22:02;;;;;;;8.30;6.80;;;26.20;99.90;;;;;;5002256;28;20453;-71
2022/08/14 06:24:30;;;;;;;10.50;8.50;;;26.60;99.90;;;;;;5004564;28;20477;-72
2022/08/14 06:26:57;;;;;;;11.90;8.37;;;26.90;99.90;;;;;;4996691;28;20478;-71
2022/08/14 06:29:24;;;;;;;8.47;6.70;;;27.40;99.90;;;;;;4999987;28;20453;-71
2022/08/14 06:31:51;;;;;;;7.93;6.80;;;27.30;99.90;;;;;;4995449;28;20493;-71
2022/08/14 06:34:18;;;;;;;8.57;5.87;;;26.80;99.90;;;;;;4999731;28;20572;-71
2022/08/14 06:36:45;;;;;;;12.50;6.60;;;26.90;99.90;;;;;;4992349;28;20468;-72
2022/08/14 06:39:12;;;;;;;7.53;6.70;;;27.10;99.90;;;;;;5003439;28;20933;-71
2022/08/14 06:41:41;;;;;;;8.40;7.07;;;27.20;99.90;;;;;;4991640;28;20458;-71
2022/08/14 06:44:08;;;;;;;7.20;6.50;;;27.40;99.90;;;;;;4996257;28;20885;-71
2022/08/14 06:46:36;;;;;;;7.57;6.87;;;27.50;99.90;;;;;;4985515;28;20572;-71
2022/08/14 06:49:03;;;;;;;8.67;6.57;;;27.00;99.90;;;;;;4991403;28;21005;-72
2022/08/14 06:51:29;;;;;;;7.77;6.97;;;27.30;99.90;;;;;;4991136;28;20471;-72
2022/08/14 06:53:56;;;;;;;7.13;6.43;;;27.60;99.90;;;;;;4991556;28;20489;-73
2022/08/14 06:56:23;;;;;;;11.43;8.17;;;27.70;99.90;;;;;;4985921;28;20556;-72
2022/08/14 06:58:51;;;;;;;8.47;7.67;;;27.90;99.90;;;;;;4997238;28;20460;-72
2022/08/14 07:06:55;;;;;;;8.27;7.47;;;29.50;99.90;;;;;;4981555;28;20456;-72
2022/08/14 07:09:23;;;;;;;8.00;7.30;;;29.40;99.90;;;;;;4987187;28;20831;-71
2022/08/14 07:11:50;;;;;;;11.27;7.20;;;29.80;99.90;;;;;;4996336;28;20990;-72
2022/08/14 07:14:18;;;;;;;7.20;6.50;;;30.20;99.90;;;;;;4982458;28;21148;-74
2022/08/14 07:16:45;;;;;;;6.97;6.27;;;30.10;99.90;;;;;;4998655;28;20480;-74
2022/08/14 07:19:12;;;;;;;7.30;6.27;;;30.30;99.90;;;;;;4997788;28;20458;-74
2022/08/14 07:21:39;;;;;;;6.90;6.20;;;30.70;99.90;;;;;;4995489;28;20458;-74
2022/08/14 07:24:06;;;;;;;9.83;6.63;;;30.60;99.90;;;;;;4993963;28;20484;-74
2022/08/14 07:26:34;;;;;;;8.50;7.10;;;30.70;99.90;;;;;;4998791;28;21017;-74
2022/08/14 07:29:01;;;;;;;8.10;7.30;;;30.30;99.90;;;;;;4994644;28;20465;-74
2022/08/14 07:31:29;;;;;;;7.03;6.20;;;30.20;99.90;;;;;;4991106;28;20466;-74
2022/08/14 07:33:55;;;;;;;6.80;6.23;;;30.50;99.90;;;;;;4995287;28;20581;-74
2022/08/14 07:36:22;;;;;;;7.10;6.40;;;31.30;99.90;;;;;;4990698;28;20468;-75
2022/08/14 07:38:50;;;;;;;10.20;7.47;;;31.10;99.90;;;;;;4991025;28;20553;-73
2022/08/14 07:41:17;;;;;;;8.93;6.53;;;30.90;99.90;;;;;;5004047;28;20445;-74
2022/08/14 07:43:44;;;;;;;6.30;5.70;;;31.30;99.40;;;;;;5002753;28;20469;-74
2022/08/14 07:46:13;;;;;;;7.10;6.40;;;31.90;98.40;;;;;;5003995;28;20464;-74
2022/08/14 07:48:42;;;;;;;7.23;6.53;;;32.40;98.10;;;;;;5005826;28;20438;-74
2022/08/14 07:51:09;;;;;;;8.03;6.57;;;33.20;96.10;;;;;;5004368;28;20461;-74
2022/08/14 07:53:36;;;;;;;6.93;6.23;;;33.40;94.80;;;;;;4971848;28;20493;-74
2022/08/14 07:56:04;;;;;;;7.63;6.93;;;33.50;94.30;;;;;;4996565;28;20489;-74
2022/08/14 07:58:31;;;;;;;7.63;6.93;;;33.50;94.00;;;;;;4988758;28;20527;-74
2022/08/14 08:01:01;;;;;;;9.27;7.63;;;33.10;93.90;;;;;;4989016;28;20461;-74
2022/08/14 08:03:31;;;;;;;7.00;5.87;;;33.40;93.40;;;;;;4990239;28;20524;-74
2022/08/14 08:06:00;;;;;;;6.67;5.60;;;33.40;92.70;;;;;;5000135;28;20485;-74
2022/08/14 08:08:29;;;;;;;6.13;5.47;;;33.40;91.80;;;;;;4995650;28;20827;-75
2022/08/14 08:10:57;;;;;;;6.27;4.80;;;33.40;91.50;;;;;;4987470;28;20581;-74
2022/08/14 08:13:25;;;;;;;10.03;6.73;;;33.20;91.90;;;;;;4996490;28;20501;-74
2022/08/14 08:15:55;;;;;;;6.63;6.03;;;33.70;91.50;;;;;;5000453;28;20462;-74
2022/08/14 08:18:23;;;;;;;7.53;6.60;;;33.90;90.60;;;;;;5006856;28;20446;-75
2022/08/14 08:20:52;;;;;;;7.17;6.43;;;34.40;89.70;;;;;;5000147;28;20471;-74
2022/08/14 08:23:22;;;;;;;6.80;6.10;;;34.50;88.70;;;;;;4990554;28;20465;-74
2022/08/14 08:25:51;;;;;;;8.23;5.77;;;34.40;87.90;;;;;;4996180;28;20971;-74
2022/08/14 08:28:20;;;;;;;7.73;7.03;;;34.20;86.90;;;;;;4993796;28;20525;-75
2022/08/14 08:30:51;;;;;;;6.17;5.57;;;35.00;85.30;;;;;;5001325;28;21101;-74
2022/08/14 08:33:18;;;;;;;8.23;6.60;;;34.80;85.50;;;;;;4999414;28;20501;-74
2022/08/14 08:35:46;;;;;;;10.43;6.67;;;35.10;83.20;;;;;;4999387;28;21232;-74
2022/08/14 08:38:16;;;;;;;6.87;6.33;;;35.10;83.50;;;;;;4994320;28;20993;-74
2022/08/14 08:40:45;;;;;;;5.97;5.47;;;35.80;81.40;;;;;;4992522;28;20546;-75
2022/08/14 08:43:19;;;;;;;6.50;6.00;;;36.10;78.30;;;;;;4992216;28;20486;-75
2022/08/14 08:45:55;;;;;;;6.60;6.10;;;35.90;78.20;;;;;;4995071;28;20466;-74
2022/08/14 08:48:26;;;;;;;6.07;5.57;;;36.00;78.00;;;;;;4993456;28;20745;-74
2022/08/14 08:50:53;;;;;;;6.67;6.10;;;35.80;77.30;;;;;;4990114;28;20473;-74
2022/08/14 08:53:20;;;;;;;8.00;5.53;;;36.10;77.60;;;;;;4991102;28;22330;-74
2022/08/14 08:55:49;;;;;;;8.30;5.93;;;36.50;75.10;;;;;;4987898;28;20516;-74
2022/08/14 08:58:19;;;;;;;6.83;6.20;;;36.10;75.70;;;;;;4992344;28;20540;-75
2022/08/14 09:00:48;;;;;;;7.43;6.47;;;36.40;76.40;;;;;;4988125;28;21144;-75
2022/08/14 09:03:19;;;;;;;6.57;6.07;;;37.30;73.10;;;;;;4992416;28;20481;-75
2022/08/14 09:05:52;;;;;;;6.13;5.63;;;37.00;72.10;;;;;;4988751;28;21025;-74
2022/08/14 09:08:20;;;;;;;6.10;5.47;;;36.80;73.60;;;;;;4991780;28;21121;-74
2022/08/14 09:10:48;;;;;;;6.60;5.90;;;37.60;71.70;;;;;;4992205;28;20833;-74
2022/08/14 09:13:16;;;;;;;6.60;6.10;;;37.80;69.40;;;;;;4992516;28;20485;-75
2022/08/14 09:15:45;;;;;;;6.20;5.70;;;38.00;68.20;;;;;;4997268;28;21089;-75
2022/08/14 09:18:14;;;;;;;6.50;5.90;;;37.70;67.10;;;;;;4993807;28;20461;-74
2022/08/14 09:20:42;;;;;;;6.00;5.40;;;38.10;66.30;;;;;;4982889;28;20832;-75
2022/08/14 09:23:10;;;;;;;6.17;4.70;;;38.40;65.10;;;;;;4985443;28;20495;-75
2022/08/14 09:25:40;;;;;;;6.10;5.60;;;39.10;64.00;;;;;;4997421;28;20458;-73
2022/08/14 09:28:09;;;;;;;6.27;5.70;;;39.20;62.10;;;;;;4995473;28;20457;-73
2022/08/14 09:30:37;;;;;;;6.07;5.53;;;39.20;62.90;;;;;;4983001;28;20450;-74
2022/08/14 09:33:19;;;;;;;6.30;5.70;;;39.50;59.60;;;;;;4995115;28;20505;-73
2022/08/14 09:35:57;;;;;;;5.97;5.53;;;39.80;59.20;;;;;;4996460;28;20458;-74
2022/08/14 09:38:28;;;;;;;6.53;6.00;;;39.50;58.80;;;;;;4999480;28;20492;-74
2022/08/14 09:41:04;;;;;;;6.03;5.43;;;39.80;58.30;;;;;;4992145;28;21200;-74
2022/08/14 09:43:43;;;;;;;4.77;4.37;;;39.90;58.70;;;;;;4999741;28;20477;-74
2022/08/14 09:46:11;;;;;;;7.07;5.10;;;40.20;56.50;;;;;;4997003;28;20458;-74
2022/08/14 09:48:38;;;;;;;6.90;5.00;;;39.60;57.10;;;;;;4997826;28;20511;-74
2022/08/14 09:51:11;;;;;;;6.37;5.77;;;39.40;57.40;;;;;;4995769;28;20457;-74
2022/08/14 09:53:43;;;;;;;6.30;5.70;;;39.90;56.10;;;;;;4995197;28;20578;-74
2022/08/14 09:56:11;;;;;;;6.90;6.30;;;39.40;57.40;;;;;;4993129;28;20486;-76
2022/08/14 09:58:41;;;;;;;6.03;5.50;;;39.20;57.50;;;;;;5000203;28;20519;-74
2022/08/14 10:01:11;;;;;;;6.00;5.53;;;39.80;56.20;;;;;;4990265;28;20985;-74
2022/08/14 10:03:48;;;;;;;5.50;5.00;;;40.60;55.30;;;;;;4996007;28;20496;-74
2022/08/14 10:06:18;;;;;;;5.80;5.17;;;40.50;54.20;;;;;;4989629;28;20459;-74
2022/08/14 10:08:47;;;;;;;5.87;5.37;;;39.80;54.10;;;;;;4994993;28;20576;-73
2022/08/14 10:11:20;;;;;;;5.10;4.70;;;39.70;55.00;;;;;;4997551;28;20454;-74
2022/08/14 10:13:53;;;;;;;5.03;4.63;;;39.90;54.60;;;;;;4993957;28;21008;-72
2022/08/14 10:16:22;;;;;;;5.30;4.80;;;40.00;53.30;;;;;;4996363;28;20973;-74
2022/08/14 10:18:50;;;;;;;6.03;5.53;;;39.30;55.00;;;;;;4998014;28;20568;-74
2022/08/14 10:21:18;;;;;;;8.23;6.20;;;39.70;54.00;;;;;;4996534;28;20457;-74
2022/08/14 10:23:48;;;;;;;5.83;5.33;;;40.20;53.50;;;;;;4998501;28;20485;-75
2022/08/14 10:26:17;;;;;;;5.43;4.93;;;39.80;53.90;;;;;;4998800;28;20446;-74
2022/08/14 10:28:47;;;;;;;5.47;5.07;;;39.60;53.60;;;;;;4998143;28;20503;-74
2022/08/14 10:31:23;;;;;;;5.80;5.30;;;39.10;53.70;;;;;;4996982;28;20449;-74
2022/08/14 10:34:02;;;;;;;4.77;4.47;;;39.20;54.20;;;;;;4999839;28;20484;-74
2022/08/14 10:36:31;;;;;;;5.73;5.27;;;39.70;53.50;;;;;;4994879;28;20461;-74
2022/08/14 10:39:00;;;;;;;5.13;4.73;;;40.30;52.20;;;;;;4997739;28;20457;-74
2022/08/14 10:41:39;;;;;;;5.67;5.17;;;40.10;51.20;;;;;;4997602;28;21109;-74
2022/08/14 10:44:13;;;;;;;5.63;5.00;;;40.00;52.00;;;;;;4998861;28;20497;-74
2022/08/14 10:46:46;;;;;;;6.20;5.40;;;40.20;51.80;;;;;;4997941;28;20822;-74
2022/08/14 10:49:19;;;;;;;5.73;5.00;;;40.60;51.40;;;;;;5000210;28;20947;-74
2022/08/14 10:52:03;;;;;;;6.03;5.50;;;41.20;51.30;;;;;;5000034;28;20600;-73
2022/08/14 10:54:33;;;;;;;6.10;5.60;;;41.20;50.80;;;;;;4993136;28;21024;-74
2022/08/14 10:57:20;;;;;;;4.70;4.40;;;41.60;51.00;;;;;;4995987;28;20449;-75
2022/08/14 10:59:54;;;;;;;5.20;4.80;;;41.90;49.60;;;;;;4996954;28;20474;-75
2022/08/14 11:02:28;;;;;;;4.63;4.33;;;42.00;49.70;;;;;;4997655;28;20456;-75
2022/08/14 11:05:13;;;;;;;5.30;4.80;;;41.30;49.50;;;;;;4996363;28;20475;-75
2022/08/14 11:07:42;;;;;;;8.33;5.37;;;41.20;48.80;;;;;;4997676;28;20457;-74
2022/08/14 11:10:11;;;;;;;4.87;4.47;;;42.00;49.10;;;;;;4994438;28;20465;-75
2022/08/14 11:12:45;;;;;;;6.07;4.77;;;41.90;48.90;;;;;;4998332;28;20460;-74
2022/08/14 11:15:13;;;;;;;5.00;4.60;;;41.90;48.70;;;;;;4996644;28;20562;-74
2022/08/14 11:17:44;;;;;;;5.47;4.97;;;41.30;48.90;;;;;;4998840;28;20466;-75
2022/08/14 11:20:12;;;;;;;5.17;4.40;;;41.70;48.40;;;;;;4997980;28;20449;-74
2022/08/14 11:22:41;;;;;;;5.70;5.20;;;41.80;48.20;;;;;;4998329;28;20856;-74
2022/08/14 11:25:12;;;;;;;5.33;4.93;;;41.20;48.40;;;;;;4993360;28;20486;-74
2022/08/14 11:27:41;;;;;;;6.37;5.80;;;41.70;48.20;;;;;;4999251;28;20542;-74
2022/08/14 11:30:11;;;;;;;5.40;4.57;;;41.50;48.30;;;;;;4996550;28;20492;-74
2022/08/14 11:32:41;;;;;;;4.70;4.30;;;42.10;47.50;;;;;;4994051;28;20473;-74
2022/08/14 11:35:14;;;;;;;7.70;4.50;;;42.30;47.10;;;;;;4994338;28;20864;-74
2022/08/14 11:37:51;;;;;;;5.90;4.77;;;42.80;46.70;;;;;;4992806;28;20461;-75
2022/08/14 11:40:19;;;;;;;4.53;4.20;;;43.30;46.10;;;;;;4990307;28;20974;-75
2022/08/14 11:42:47;;;;;;;5.60;5.20;;;43.70;46.00;;;;;;4992456;28;20466;-74
2022/08/14 11:45:14;;;;;;;5.53;4.83;;;43.60;45.80;;;;;;4997166;28;20461;-75
2022/08/14 11:47:41;;;;;;;5.20;4.80;;;44.10;45.30;;;;;;4990740;28;20461;-76
2022/08/14 11:50:18;;;;;;;4.53;4.23;;;44.80;44.40;;;;;;4989529;28;20588;-75
2022/08/14 11:52:46;;;;;;;5.07;4.60;;;43.90;44.40;;;;;;4997003;28;20823;-75
2022/08/14 11:55:14;;;;;;;5.70;5.30;;;43.80;44.90;;;;;;4998757;28;20481;-75
2022/08/14 11:57:42;;;;;;;5.70;5.20;;;43.00;45.50;;;;;;4990068;28;20461;-74
2022/08/14 12:00:11;;;;;;;6.63;5.10;;;42.70;46.10;;;;;;4994519;28;20498;-73
2022/08/14 12:02:49;;;;;;;5.27;4.87;;;42.50;46.50;;;;;;4997625;28;20559;-75
2022/08/14 12:05:29;;;;;;;4.83;4.47;;;43.30;45.80;;;;;;4996495;28;20984;-76
2022/08/14 12:07:57;;;;;;;4.63;4.23;;;43.80;46.00;;;;;;4996659;28;20479;-75
2022/08/14 12:10:24;;;;;;;4.63;4.23;;;43.80;44.40;;;;;;4997104;28;20480;-75
2022/08/14 12:12:54;;;;;;;4.70;4.30;;;42.50;45.00;;;;;;4993165;28;20544;-74
2022/08/14 12:15:30;;;;;;;6.07;5.40;;;42.90;44.80;;;;;;4988065;28;20466;-74
2022/08/14 12:17:59;;;;;;;5.93;5.43;;;42.20;45.70;;;;;;5000906;28;20992;-74
2022/08/14 12:20:32;;;;;;;4.47;4.17;;;41.70;45.50;;;;;;4996197;28;20461;-75
2022/08/14 12:23:01;;;;;;;6.27;5.70;;;40.60;45.80;;;;;;4995682;28;20898;-74
2022/08/14 12:25:28;;;;;;;5.23;4.83;;;39.70;47.90;;;;;;4994116;28;20465;-74
2022/08/14 12:27:57;;;;;;;9.20;4.43;;;40.40;46.90;;;;;;4990272;28;20457;-75
2022/08/14 12:30:33;;;;;;;5.20;4.80;;;41.40;46.40;;;;;;4981804;28;20464;-74
2022/08/14 12:33:02;;;;;;;5.47;5.07;;;41.40;46.00;;;;;;4992645;28;20591;-74
2022/08/14 12:35:41;;;;;;;7.60;5.43;;;41.30;46.60;;;;;;4999238;28;20548;-74
2022/08/14 12:38:10;;;;;;;4.90;4.50;;;41.70;46.70;;;;;;4992151;28;20481;-74
2022/08/14 12:40:46;;;;;;;5.57;5.07;;;42.90;45.30;;;;;;4997434;28;20537;-75
2022/08/14 12:43:14;;;;;;;7.20;4.53;;;43.60;44.20;;;;;;4997211;28;20480;-75
2022/08/14 12:45:48;;;;;;;4.73;4.40;;;42.30;44.90;;;;;;4995003;28;20468;-74
2022/08/14 12:48:15;;;;;;;4.97;4.57;;;40.90;45.50;;;;;;4996419;28;20469;-74
2022/08/14 12:50:43;;;;;;;4.97;4.57;;;41.20;46.40;;;;;;4993935;28;21253;-74
2022/08/14 12:53:11;;;;;;;5.70;5.20;;;42.20;45.40;;;;;;4997306;28;20485;-75
2022/08/14 12:55:39;;;;;;;4.83;4.43;;;43.30;44.70;;;;;;4993992;28;20458;-74
2022/08/14 12:58:07;;;;;;;5.97;5.47;;;43.10;44.20;;;;;;4998177;28;21079;-74
2022/08/14 13:00:37;;;;;;;8.13;7.33;;;42.10;45.30;;;;;;4982777;28;20489;-74
2022/08/14 13:03:05;;;;;;;4.73;4.40;;;41.60;45.40;;;;;;4990063;28;20517;-75
2022/08/14 13:05:34;;;;;;;5.40;4.90;;;42.20;45.50;;;;;;4989847;28;20449;-74
2022/08/14 13:08:04;;;;;;;5.93;5.43;;;43.20;45.00;;;;;;4988983;28;20567;-74
2022/08/14 13:10:33;;;;;;;5.23;4.83;;;43.50;44.00;;;;;;4987635;28;20461;-74
2022/08/14 13:13:02;;;;;;;5.60;5.20;;;43.40;44.10;;;;;;4992493;28;20621;-74
2022/08/14 13:15:29;;;;;;;7.30;5.23;;;42.80;43.90;;;;;;4988152;28;20489;-73